createdAt,value
2018-07-30T00:01:28.795Z,24.20
2018-07-30T00:05:33.090Z,24.20
2018-07-30T00:09:36.420Z,24.20
2018-07-30T00:13:39.743Z,24.10
2018-07-30T00:17:43.106Z,24.10
2018-07-30T00:25:49.559Z,24.10
2018-07-30T00:29:52.890Z,24.10
2018-07-30T00:33:56.235Z,24.10
2018-07-30T00:37:59.567Z,24.00
2018-07-30T00:42:03.644Z,24.00
2018-07-30T00:46:07.000Z,24.10
2018-07-30T00:50:10.326Z,24.00
2018-07-30T00:54:13.670Z,24.10
2018-07-30T00:58:17.224Z,24.00
2018-07-30T01:02:21.079Z,24.00
2018-07-30T01:06:24.423Z,24.00
2018-07-30T01:10:27.783Z,24.00
2018-07-30T01:14:31.244Z,24.00
2018-07-30T01:18:34.433Z,24.00
2018-07-30T01:22:37.858Z,24.00
2018-07-30T01:26:41.246Z,24.00
2018-07-30T01:30:45.412Z,24.00
2018-07-30T01:34:48.751Z,24.00
2018-07-30T01:38:52.386Z,24.00
2018-07-30T01:42:55.714Z,24.00
2018-07-30T01:46:59.034Z,24.00
2018-07-30T01:51:02.952Z,23.90
2018-07-30T01:55:06.296Z,23.90
2018-07-30T01:59:09.629Z,23.90
2018-07-30T02:03:12.980Z,23.90
2018-07-30T02:07:16.294Z,23.80
2018-07-30T02:11:19.614Z,23.80
2018-07-30T02:15:22.951Z,23.80
2018-07-30T02:19:26.270Z,23.80
2018-07-30T02:23:29.619Z,23.70
2018-07-30T02:27:32.938Z,23.70
2018-07-30T02:31:36.371Z,23.70
2018-07-30T02:35:39.776Z,23.70
2018-07-30T02:39:43.089Z,23.60
2018-07-30T02:43:46.436Z,23.60
2018-07-30T02:47:49.768Z,23.60
2018-07-30T02:51:53.095Z,23.50
2018-07-30T02:55:56.526Z,23.50
2018-07-30T02:59:59.888Z,23.50
2018-07-30T03:04:03.233Z,23.50
2018-07-30T03:08:06.950Z,23.40
2018-07-30T03:12:10.294Z,23.40
2018-07-30T03:16:13.882Z,23.40
2018-07-30T03:20:17.716Z,23.30
2018-07-30T03:24:21.032Z,23.30
2018-07-30T03:28:24.386Z,23.30
2018-07-30T03:32:27.724Z,23.20
2018-07-30T03:36:31.091Z,23.10
2018-07-30T03:40:34.419Z,23.10
2018-07-30T03:44:37.759Z,23.00
2018-07-30T03:48:41.085Z,23.00
2018-07-30T03:52:45.494Z,22.90
2018-07-30T03:56:48.845Z,22.90
2018-07-30T04:00:52.234Z,22.80
2018-07-30T04:04:55.571Z,22.80
2018-07-30T04:08:58.924Z,22.80
2018-07-30T04:13:02.236Z,22.80
2018-07-30T04:17:05.583Z,22.70
2018-07-30T04:21:08.935Z,22.70
2018-07-30T04:25:12.272Z,22.70
2018-07-30T04:29:16.541Z,22.60
2018-07-30T04:33:19.907Z,22.60
2018-07-30T04:37:23.242Z,22.60
2018-07-30T04:41:26.851Z,22.60
2018-07-30T04:45:30.183Z,22.60
2018-07-30T04:49:33.523Z,22.60
2018-07-30T04:53:36.859Z,22.70
2018-07-30T04:57:40.175Z,22.70
2018-07-30T05:01:43.572Z,22.80
2018-07-30T05:05:46.931Z,22.90
2018-07-30T05:09:50.716Z,22.90
2018-07-30T05:13:54.019Z,23.00
2018-07-30T05:17:57.349Z,23.10
2018-07-30T05:22:01.545Z,23.20
2018-07-30T05:26:04.872Z,23.30
2018-07-30T05:30:09.024Z,23.40
2018-07-30T05:34:12.371Z,23.40
2018-07-30T05:38:15.710Z,23.50
2018-07-30T05:42:19.038Z,23.60
2018-07-30T05:46:22.367Z,23.70
2018-07-30T05:50:25.707Z,23.80
2018-07-30T05:54:29.020Z,23.90
2018-07-30T05:58:32.378Z,23.90
2018-07-30T06:02:35.929Z,24.10
2018-07-30T06:06:39.288Z,24.10
2018-07-30T06:10:42.663Z,24.20
2018-07-30T06:14:46.041Z,24.30
2018-07-30T06:18:49.370Z,24.30
2018-07-30T06:22:52.714Z,24.40
2018-07-30T06:26:56.057Z,24.40
2018-07-30T06:30:59.493Z,24.50
2018-07-30T06:35:03.067Z,24.60
2018-07-30T06:39:09.433Z,24.60
2018-07-30T06:43:12.784Z,24.70
2018-07-30T06:47:16.126Z,24.80
2018-07-30T06:51:19.463Z,24.90
2018-07-30T06:55:22.785Z,25.00
2018-07-30T06:59:26.208Z,25.10
2018-07-30T07:03:29.549Z,25.20
2018-07-30T07:07:32.957Z,25.30
2018-07-30T07:11:36.441Z,25.40
2018-07-30T07:15:39.792Z,25.40
2018-07-30T07:19:43.166Z,25.50
2018-07-30T07:23:46.541Z,25.60
2018-07-30T07:27:49.893Z,25.60
2018-07-30T07:31:53.288Z,25.60
2018-07-30T07:39:59.698Z,25.70
2018-07-30T07:44:03.136Z,25.80
2018-07-30T07:48:08.456Z,25.90
2018-07-30T07:52:11.764Z,26.00
2018-07-30T07:56:15.093Z,26.10
2018-07-30T08:04:28.130Z,26.30
2018-07-30T08:08:31.475Z,26.50
2018-07-30T08:12:34.838Z,26.60
2018-07-30T08:16:38.673Z,26.70
2018-07-30T08:20:42.036Z,26.80
2018-07-30T08:24:45.370Z,27.00
2018-07-30T08:28:48.712Z,27.10
2018-07-30T08:32:52.057Z,27.20
2018-07-30T08:36:55.426Z,27.30
2018-07-30T08:40:58.779Z,27.50
2018-07-30T08:45:02.169Z,27.60
2018-07-30T08:49:05.589Z,27.80
2018-07-30T08:53:08.984Z,28.00
2018-07-30T08:57:12.353Z,28.20
2018-07-30T09:01:15.751Z,28.40
2018-07-30T09:05:19.087Z,28.60
2018-07-30T09:13:25.483Z,28.90
2018-07-30T09:17:28.899Z,29.20
2018-07-30T09:21:32.271Z,29.30
2018-07-30T09:25:35.599Z,29.50
2018-07-30T09:29:38.976Z,29.80
2018-07-30T09:33:42.292Z,30.00
2018-07-30T09:39:21.731Z,30.30
2018-07-30T09:43:25.055Z,30.50
2018-07-30T09:47:28.389Z,30.80
2018-07-30T09:51:31.839Z,31.00
2018-07-30T09:55:35.320Z,31.30
2018-07-30T09:59:38.726Z,31.50
2018-07-30T10:03:42.074Z,31.80
2018-07-30T10:07:45.431Z,32.00
2018-07-30T10:11:48.980Z,32.20
2018-07-30T10:15:52.594Z,32.40
2018-07-30T10:19:55.986Z,32.50
2018-07-30T10:23:59.307Z,32.60
2018-07-30T10:28:02.653Z,32.80
2018-07-30T10:32:06.314Z,32.90
2018-07-30T10:36:09.660Z,33.00
2018-07-30T10:40:12.985Z,33.00
2018-07-30T10:44:16.300Z,33.20
2018-07-30T10:48:19.623Z,33.40
2018-07-30T10:52:22.967Z,33.60
2018-07-30T11:00:29.527Z,33.90
2018-07-30T11:04:32.852Z,33.90
2018-07-30T11:08:36.170Z,33.90
2018-07-30T11:16:42.590Z,33.70
2018-07-30T11:20:45.946Z,33.70
2018-07-30T11:24:49.260Z,33.80
2018-07-30T11:28:52.592Z,33.80
2018-07-30T11:32:56.501Z,33.90
2018-07-30T11:36:59.832Z,34.10
2018-07-30T11:41:03.200Z,34.20
2018-07-30T11:45:06.501Z,34.50
2018-07-30T11:49:09.839Z,34.70
2018-07-30T11:53:14.104Z,34.90
2018-07-30T11:57:17.427Z,35.00
2018-07-30T12:01:20.839Z,35.10
2018-07-30T12:05:24.154Z,35.20
2018-07-30T12:09:27.546Z,35.30
2018-07-30T12:13:31.052Z,35.30
2018-07-30T12:17:34.286Z,35.30
2018-07-30T12:21:38.079Z,35.30
2018-07-30T12:25:41.668Z,35.40
2018-07-30T12:29:45.242Z,35.40
2018-07-30T12:33:48.615Z,35.30
2018-07-30T12:37:51.952Z,35.30
2018-07-30T12:41:55.674Z,35.30
2018-07-30T12:45:59.178Z,35.30
2018-07-30T12:50:02.768Z,35.20
2018-07-30T12:54:06.431Z,35.20
2018-07-30T12:58:10.243Z,35.20
2018-07-30T13:02:14.052Z,35.10
2018-07-30T13:06:17.394Z,35.30
2018-07-30T13:10:21.049Z,35.40
2018-07-30T13:14:24.469Z,35.40
2018-07-30T13:18:28.111Z,35.50
2018-07-30T13:22:31.516Z,35.50
2018-07-30T13:26:34.887Z,35.50
2018-07-30T13:30:38.295Z,35.40
2018-07-30T13:34:41.665Z,35.50
2018-07-30T13:38:45.083Z,35.60
2018-07-30T13:42:48.441Z,35.60
2018-07-30T13:46:51.969Z,35.80
2018-07-30T13:50:55.367Z,35.90
2018-07-30T13:54:58.708Z,36.10
2018-07-30T13:59:02.434Z,36.20
2018-07-30T14:03:06.207Z,36.20
2018-07-30T14:07:09.615Z,36.20
2018-07-30T14:11:13.131Z,36.20
2018-07-30T14:15:16.717Z,36.10
2018-07-30T14:19:20.047Z,36.00
2018-07-30T14:23:28.068Z,35.90
2018-07-30T14:27:31.410Z,35.80
2018-07-30T14:31:34.794Z,35.70
2018-07-30T14:35:38.171Z,35.60
2018-07-30T14:39:41.535Z,35.50
2018-07-30T14:47:47.962Z,35.20
2018-07-30T14:51:51.370Z,35.10
2018-07-30T14:55:54.743Z,35.10
2018-07-30T14:59:58.112Z,35.10
2018-07-30T15:04:02.268Z,35.20
2018-07-30T15:08:05.727Z,35.30
2018-07-30T15:12:09.066Z,35.30
2018-07-30T15:20:15.740Z,35.30
2018-07-30T15:24:19.110Z,35.30
2018-07-30T15:28:22.503Z,35.20
2018-07-30T15:32:25.930Z,35.20
2018-07-30T15:36:29.291Z,35.20
2018-07-30T15:40:36.721Z,35.30
2018-07-30T15:44:40.099Z,35.40
2018-07-30T15:48:43.447Z,35.50
2018-07-30T15:52:46.775Z,35.60
2018-07-30T15:56:50.103Z,35.80
2018-07-30T16:00:53.446Z,35.80
2018-07-30T16:04:57.399Z,35.90
2018-07-30T16:09:00.814Z,36.00
2018-07-30T16:13:04.690Z,36.00
2018-07-30T16:17:08.012Z,36.00
2018-07-30T16:21:11.420Z,35.90
2018-07-30T16:25:14.772Z,35.80
2018-07-30T16:33:21.183Z,35.50
2018-07-30T16:37:24.571Z,35.40
2018-07-30T16:41:27.978Z,35.30
2018-07-30T16:45:31.527Z,35.20
2018-07-30T16:49:35.273Z,35.10
2018-07-30T16:53:38.618Z,34.90
2018-07-30T16:57:41.944Z,34.90
2018-07-30T17:01:45.610Z,34.70
2018-07-30T17:05:48.938Z,34.70
2018-07-30T17:09:52.422Z,34.60
2018-07-30T17:13:56.014Z,34.50
2018-07-30T17:17:59.387Z,34.50
2018-07-30T17:22:02.746Z,34.40
2018-07-30T17:26:06.158Z,34.30
2018-07-30T17:30:10.176Z,34.30
2018-07-30T17:34:13.495Z,34.20
2018-07-30T17:38:17.751Z,34.10
2018-07-30T17:42:21.082Z,33.90
2018-07-30T17:46:24.429Z,33.80
2018-07-30T17:50:28.107Z,33.70
2018-07-30T17:54:31.451Z,33.60
2018-07-30T17:58:34.786Z,33.40
2018-07-30T18:02:38.729Z,33.30
2018-07-30T18:06:42.089Z,33.10
2018-07-30T18:10:45.431Z,33.00
2018-07-30T18:14:48.781Z,32.90
2018-07-30T18:18:52.092Z,32.80
2018-07-30T18:22:58.857Z,32.60
2018-07-30T18:27:02.660Z,32.60
2018-07-30T18:31:06.120Z,32.60
2018-07-30T18:35:09.495Z,32.50
2018-07-30T18:39:12.947Z,32.40
2018-07-30T18:43:16.351Z,32.40
2018-07-30T18:47:19.779Z,32.30
2018-07-30T18:51:23.296Z,32.20
2018-07-30T18:55:26.674Z,32.10
2018-07-30T18:59:30.016Z,32.00
2018-07-30T19:03:33.391Z,31.90
2018-07-30T19:07:36.810Z,31.80
2018-07-30T19:11:40.242Z,31.60
2018-07-30T19:15:43.586Z,31.50
2018-07-30T19:19:46.907Z,31.40
2018-07-30T19:23:50.331Z,31.30
2018-07-30T19:27:53.675Z,31.20
2018-07-30T19:31:57.178Z,31.00
2018-07-30T19:36:00.561Z,30.90
2018-07-30T19:40:04.102Z,30.80
2018-07-30T19:44:07.991Z,30.60
2018-07-30T19:48:11.309Z,30.50
2018-07-30T19:52:14.936Z,30.30
2018-07-30T19:56:18.280Z,30.20
2018-07-30T20:00:22.648Z,30.00
2018-07-30T20:04:25.978Z,29.90
2018-07-30T20:08:29.373Z,29.70
2018-07-30T20:12:32.713Z,29.60
2018-07-30T20:16:36.875Z,29.50
2018-07-30T20:20:40.805Z,29.40
2018-07-30T20:24:44.214Z,29.30
2018-07-30T20:28:47.916Z,29.10
2018-07-30T20:32:51.271Z,29.00
2018-07-30T20:36:54.641Z,28.90
2018-07-30T20:40:57.984Z,28.80
2018-07-30T20:45:01.371Z,28.60
2018-07-30T20:49:04.697Z,28.50
2018-07-30T20:53:08.138Z,28.40
2018-07-30T20:57:11.770Z,28.30
2018-07-30T21:01:15.091Z,28.20
2018-07-30T21:05:18.567Z,28.10
2018-07-30T21:09:21.972Z,28.00
2018-07-30T21:13:25.361Z,27.90
2018-07-30T21:17:28.806Z,27.80
2018-07-30T21:21:32.225Z,27.70
2018-07-30T21:25:35.583Z,27.60
2018-07-30T21:29:39.110Z,27.40
2018-07-30T21:33:42.534Z,27.40
2018-07-30T21:37:45.872Z,27.30
2018-07-30T21:41:49.351Z,27.30
2018-07-30T21:45:52.764Z,27.20
2018-07-30T21:49:56.127Z,27.10
2018-07-30T21:53:59.707Z,27.10
2018-07-30T21:58:03.020Z,27.10
2018-07-30T22:06:09.425Z,27.00
2018-07-30T22:10:12.941Z,26.90
2018-07-30T22:14:16.472Z,26.90
2018-07-30T22:18:19.982Z,26.90
2018-07-30T22:22:23.366Z,26.80
2018-07-30T22:26:26.693Z,26.70
2018-07-30T22:30:30.038Z,26.60
2018-07-30T22:34:34.622Z,26.60
2018-07-30T22:38:37.967Z,26.50
2018-07-30T22:42:41.328Z,26.50
2018-07-30T22:46:44.645Z,26.40
2018-07-30T22:50:48.017Z,26.40
2018-07-30T22:54:51.723Z,26.40
2018-07-30T22:58:55.051Z,26.30
2018-07-30T23:02:58.362Z,26.30
2018-07-30T23:07:01.735Z,26.20
2018-07-30T23:11:06.143Z,26.20
2018-07-30T23:15:09.642Z,26.10
2018-07-30T23:19:12.980Z,26.10
2018-07-30T23:23:16.338Z,26.00
2018-07-30T23:27:20.703Z,26.00
2018-07-30T23:31:24.020Z,25.90
2018-07-30T23:35:27.337Z,25.90
2018-07-30T23:39:30.675Z,25.80
2018-07-30T23:43:33.997Z,25.70
2018-07-30T23:47:37.320Z,25.60
2018-07-30T23:51:40.654Z,25.60
2018-07-30T23:55:44.000Z,25.50
2018-07-30T23:59:47.323Z,25.40
